createdAt,value
2018-08-17T00:00:08.356Z,23.60
2018-08-17T00:00:40.149Z,23.60
2018-08-17T00:01:11.924Z,23.60
2018-08-17T00:01:43.701Z,23.60
2018-08-17T00:02:15.608Z,23.60
2018-08-17T00:02:47.455Z,23.60
2018-08-17T00:03:19.502Z,23.60
2018-08-17T00:03:51.323Z,23.60
2018-08-17T00:04:23.162Z,23.60
2018-08-17T00:04:54.997Z,23.60
2018-08-17T00:05:26.810Z,23.60
2018-08-17T00:05:58.602Z,23.60
2018-08-17T00:06:30.385Z,23.60
2018-08-17T00:07:02.207Z,23.60
2018-08-17T00:07:33.998Z,23.60
2018-08-17T00:08:05.914Z,23.60
2018-08-17T00:08:37.796Z,23.60
2018-08-17T00:09:09.700Z,23.60
2018-08-17T00:09:41.479Z,23.60
2018-08-17T00:10:13.334Z,23.60
2018-08-17T00:10:45.162Z,23.60
2018-08-17T00:11:16.965Z,23.60
2018-08-17T00:11:48.935Z,23.60
2018-08-17T00:12:20.761Z,23.60
2018-08-17T00:12:52.635Z,23.60
2018-08-17T00:13:24.598Z,23.60
2018-08-17T00:13:56.717Z,23.60
2018-08-17T00:14:28.592Z,23.70
2018-08-17T00:15:00.468Z,23.70
2018-08-17T00:15:32.348Z,23.60
2018-08-17T00:16:04.187Z,23.60
2018-08-17T00:16:36.034Z,23.60
2018-08-17T00:17:07.898Z,23.60
2018-08-17T00:17:39.731Z,23.60
2018-08-17T00:18:11.540Z,23.60
2018-08-17T00:18:43.363Z,23.60
2018-08-17T00:19:15.259Z,23.60
2018-08-17T00:19:47.044Z,23.60
2018-08-17T00:20:19.027Z,23.60
2018-08-17T00:20:51.042Z,23.60
2018-08-17T00:21:23.000Z,23.60
2018-08-17T00:21:54.801Z,23.60
2018-08-17T00:22:26.604Z,23.60
2018-08-17T00:22:58.423Z,23.60
2018-08-17T00:23:30.225Z,23.60
2018-08-17T00:24:02.094Z,23.60
2018-08-17T00:24:33.925Z,23.60
2018-08-17T00:25:05.960Z,23.60
2018-08-17T00:25:37.793Z,23.60
2018-08-17T00:26:09.910Z,23.60
2018-08-17T00:26:41.806Z,23.60
2018-08-17T00:27:13.925Z,23.60
2018-08-17T00:27:45.740Z,23.60
2018-08-17T00:28:17.591Z,23.60
2018-08-17T00:28:49.460Z,23.60
2018-08-17T00:29:21.532Z,23.60
2018-08-17T00:29:53.305Z,23.60
2018-08-17T00:30:25.182Z,23.60
2018-08-17T00:30:57.155Z,23.60
2018-08-17T00:31:28.981Z,23.60
2018-08-17T00:32:00.778Z,23.60
2018-08-17T00:32:32.611Z,23.60
2018-08-17T00:33:04.452Z,23.60
2018-08-17T00:33:36.237Z,23.60
2018-08-17T00:34:08.061Z,23.50
2018-08-17T00:34:40.032Z,23.60
2018-08-17T00:35:11.880Z,23.60
2018-08-17T00:35:43.681Z,23.60
2018-08-17T00:36:15.503Z,23.60
2018-08-17T00:36:47.291Z,23.60
2018-08-17T00:37:19.192Z,23.50
2018-08-17T00:37:51.026Z,23.50
2018-08-17T00:38:22.904Z,23.50
2018-08-17T00:38:54.745Z,23.50
2018-08-17T00:39:26.557Z,23.50
2018-08-17T00:39:58.335Z,23.50
2018-08-17T00:40:30.156Z,23.50
2018-08-17T00:41:02.179Z,23.50
2018-08-17T00:41:34.140Z,23.50
2018-08-17T00:42:06.241Z,23.50
2018-08-17T00:42:38.081Z,23.50
2018-08-17T00:43:09.902Z,23.50
2018-08-17T00:43:41.761Z,23.50
2018-08-17T00:44:13.561Z,23.50
2018-08-17T00:44:45.480Z,23.50
2018-08-17T00:45:17.283Z,23.50
2018-08-17T00:45:49.186Z,23.50
2018-08-17T00:46:20.961Z,23.50
2018-08-17T00:46:52.731Z,23.50
2018-08-17T00:47:24.605Z,23.50
2018-08-17T00:47:56.500Z,23.50
2018-08-17T00:48:28.905Z,23.50
2018-08-17T00:49:00.713Z,23.40
2018-08-17T00:49:32.512Z,23.40
2018-08-17T00:50:04.312Z,23.50
2018-08-17T00:50:36.123Z,23.50
2018-08-17T00:51:07.894Z,23.40
2018-08-17T00:51:39.740Z,23.40
2018-08-17T00:52:11.547Z,23.50
2018-08-17T00:52:43.338Z,23.50
2018-08-17T00:53:15.131Z,23.50
2018-08-17T00:53:46.924Z,23.40
2018-08-17T00:54:18.710Z,23.50
2018-08-17T00:54:50.592Z,23.40
2018-08-17T00:55:22.358Z,23.40
2018-08-17T00:55:54.155Z,23.40
2018-08-17T00:56:25.976Z,23.40
2018-08-17T00:56:57.930Z,23.40
2018-08-17T00:57:30.005Z,23.40
2018-08-17T00:58:01.815Z,23.40
2018-08-17T00:58:33.660Z,23.40
2018-08-17T00:59:05.485Z,23.40
2018-08-17T00:59:37.283Z,23.40
2018-08-17T01:00:09.061Z,23.40
2018-08-17T01:00:40.899Z,23.40
2018-08-17T01:01:12.778Z,23.40
2018-08-17T01:01:44.724Z,23.40
2018-08-17T01:02:16.772Z,23.40
2018-08-17T01:02:48.620Z,23.40
2018-08-17T01:03:20.432Z,23.40
2018-08-17T01:03:52.286Z,23.40
2018-08-17T01:04:24.402Z,23.40
2018-08-17T01:04:56.261Z,23.40
2018-08-17T01:05:28.091Z,23.40
2018-08-17T01:05:59.911Z,23.40
2018-08-17T01:06:31.772Z,23.40
2018-08-17T01:07:03.588Z,23.40
2018-08-17T01:07:35.642Z,23.40
2018-08-17T01:08:07.490Z,23.40
2018-08-17T01:08:39.381Z,23.40
2018-08-17T01:09:11.252Z,23.40
2018-08-17T01:09:43.136Z,23.40
2018-08-17T01:10:15.153Z,23.40
2018-08-17T01:10:46.990Z,23.40
2018-08-17T01:11:19.140Z,23.40
2018-08-17T01:11:50.981Z,23.40
2018-08-17T01:12:23.110Z,23.40
2018-08-17T01:12:54.973Z,23.40
2018-08-17T01:13:26.787Z,23.40
2018-08-17T01:13:58.726Z,23.40
2018-08-17T01:14:30.622Z,23.40
2018-08-17T01:15:02.437Z,23.40
2018-08-17T01:15:34.261Z,23.40
2018-08-17T01:16:06.072Z,23.40
2018-08-17T01:16:37.960Z,23.40
2018-08-17T01:17:09.809Z,23.40
2018-08-17T01:17:41.680Z,23.40
2018-08-17T01:18:13.481Z,23.40
2018-08-17T01:18:45.340Z,23.40
2018-08-17T01:19:17.186Z,23.50
2018-08-17T01:19:48.997Z,23.50
2018-08-17T01:20:20.783Z,23.50
2018-08-17T01:20:52.550Z,23.50
2018-08-17T01:21:24.397Z,23.50
2018-08-17T01:21:56.244Z,23.40
2018-08-17T01:22:28.310Z,23.50
2018-08-17T01:23:00.120Z,23.40
2018-08-17T01:23:31.952Z,23.40
2018-08-17T01:24:04.061Z,23.40
2018-08-17T01:24:35.903Z,23.40
2018-08-17T01:25:07.848Z,23.40
2018-08-17T01:25:39.869Z,23.40
2018-08-17T01:26:11.720Z,23.40
2018-08-17T01:26:43.535Z,23.40
2018-08-17T01:27:15.439Z,23.40
2018-08-17T01:27:47.350Z,23.40
2018-08-17T01:28:19.429Z,23.40
2018-08-17T01:28:51.299Z,23.30
2018-08-17T01:29:23.281Z,23.30
2018-08-17T01:29:55.401Z,23.40
2018-08-17T01:30:27.182Z,23.40
2018-08-17T01:30:58.969Z,23.40
2018-08-17T01:31:30.849Z,23.30
2018-08-17T01:32:02.869Z,23.40
2018-08-17T01:32:34.686Z,23.30
2018-08-17T01:33:06.510Z,23.30
2018-08-17T01:33:38.374Z,23.30
2018-08-17T01:34:10.361Z,23.30
2018-08-17T01:34:42.185Z,23.30
2018-08-17T01:35:13.993Z,23.30
2018-08-17T01:35:45.809Z,23.30
2018-08-17T01:36:17.636Z,23.30
2018-08-17T01:36:49.473Z,23.30
2018-08-17T01:37:21.492Z,23.30
2018-08-17T01:37:53.291Z,23.30
2018-08-17T01:38:25.176Z,23.30
2018-08-17T01:38:57.034Z,23.30
2018-08-17T01:39:28.891Z,23.30
2018-08-17T01:40:01.064Z,23.30
2018-08-17T01:40:32.889Z,23.30
2018-08-17T01:41:04.782Z,23.20
2018-08-17T01:41:36.870Z,23.20
2018-08-17T01:42:08.779Z,23.20
2018-08-17T01:42:40.772Z,23.30
2018-08-17T01:43:12.670Z,23.20
2018-08-17T01:43:44.489Z,23.20
2018-08-17T01:44:16.330Z,23.20
2018-08-17T01:44:48.131Z,23.20
2018-08-17T01:45:19.985Z,23.20
2018-08-17T01:45:52.098Z,23.20
2018-08-17T01:46:23.924Z,23.20
2018-08-17T01:46:55.850Z,23.20
2018-08-17T01:47:27.671Z,23.20
2018-08-17T01:47:59.689Z,23.20
2018-08-17T01:48:31.668Z,23.20
2018-08-17T01:49:03.540Z,23.20
2018-08-17T01:49:35.390Z,23.20
2018-08-17T01:50:07.241Z,23.20
2018-08-17T01:50:39.179Z,23.20
2018-08-17T01:51:10.987Z,23.20
2018-08-17T01:51:42.806Z,23.20
2018-08-17T01:52:14.772Z,23.20
2018-08-17T01:52:46.672Z,23.20
2018-08-17T01:53:18.609Z,23.20
2018-08-17T01:53:50.461Z,23.20
2018-08-17T01:54:22.341Z,23.20
2018-08-17T01:54:54.292Z,23.20
2018-08-17T01:55:26.270Z,23.20
2018-08-17T01:55:58.069Z,23.20
2018-08-17T01:56:29.963Z,23.30
2018-08-17T01:57:01.813Z,23.20
2018-08-17T01:57:33.798Z,23.30
2018-08-17T01:58:05.640Z,23.20
2018-08-17T01:58:37.423Z,23.20
2018-08-17T01:59:09.312Z,23.20
2018-08-17T01:59:41.370Z,23.20
2018-08-17T02:00:13.240Z,23.20
2018-08-17T02:00:45.190Z,23.20
2018-08-17T02:01:17.149Z,23.20
2018-08-17T02:01:49.169Z,23.20
2018-08-17T02:02:21.169Z,23.20
2018-08-17T02:02:53.198Z,23.20
2018-08-17T02:03:25.130Z,23.20
2018-08-17T02:03:56.941Z,23.20
2018-08-17T02:04:28.830Z,23.20
2018-08-17T02:05:00.742Z,23.20
2018-08-17T02:05:32.629Z,23.20
2018-08-17T02:06:04.600Z,23.20
2018-08-17T02:06:36.430Z,23.20
2018-08-17T02:07:08.450Z,23.20
2018-08-17T02:07:40.306Z,23.20
2018-08-17T02:08:12.187Z,23.20
2018-08-17T02:08:44.082Z,23.20
2018-08-17T02:09:15.940Z,23.20
2018-08-17T02:09:47.741Z,23.20
2018-08-17T02:10:19.640Z,23.10
2018-08-17T02:10:51.519Z,23.10
2018-08-17T02:11:23.349Z,23.10
2018-08-17T02:11:55.392Z,23.10
2018-08-17T02:12:27.234Z,23.10
2018-08-17T02:12:59.049Z,23.10
2018-08-17T02:13:30.823Z,23.10
2018-08-17T02:14:02.673Z,23.10
2018-08-17T02:14:34.483Z,23.10
2018-08-17T02:15:06.338Z,23.20
2018-08-17T02:15:38.318Z,23.20
2018-08-17T02:16:10.160Z,23.20
2018-08-17T02:16:41.941Z,23.20
2018-08-17T02:17:13.746Z,23.20
2018-08-17T02:17:45.762Z,23.10
2018-08-17T02:18:17.610Z,23.20
2018-08-17T02:18:49.434Z,23.20
2018-08-17T02:19:21.197Z,23.20
2018-08-17T02:19:52.993Z,23.20
2018-08-17T02:20:24.894Z,23.20
2018-08-17T02:20:56.883Z,23.20
2018-08-17T02:21:28.840Z,23.10
2018-08-17T02:22:00.670Z,23.10
2018-08-17T02:22:32.876Z,23.10
2018-08-17T02:23:04.750Z,23.10
2018-08-17T02:23:36.533Z,23.20
2018-08-17T02:24:08.498Z,23.20
2018-08-17T02:24:40.310Z,23.20
2018-08-17T02:25:12.199Z,23.20
2018-08-17T02:25:44.054Z,23.20
2018-08-17T02:26:15.900Z,23.10
2018-08-17T02:26:47.812Z,23.10
2018-08-17T02:27:19.812Z,23.10
2018-08-17T02:27:51.757Z,23.10
2018-08-17T02:28:23.558Z,23.10
2018-08-17T02:28:55.432Z,23.10
2018-08-17T02:29:27.357Z,23.10
2018-08-17T02:29:59.388Z,23.10
2018-08-17T02:30:31.227Z,23.10
2018-08-17T02:31:03.047Z,23.10
2018-08-17T02:31:34.866Z,23.10
2018-08-17T02:32:06.807Z,23.10
2018-08-17T02:32:38.574Z,23.10
2018-08-17T02:33:10.517Z,23.10
2018-08-17T02:33:42.382Z,23.10
2018-08-17T02:34:14.252Z,23.10
2018-08-17T02:34:46.104Z,23.10
2018-08-17T02:35:17.998Z,23.10
2018-08-17T02:35:49.827Z,23.10
2018-08-17T02:36:21.818Z,23.10
2018-08-17T02:36:53.737Z,23.10
2018-08-17T02:37:25.721Z,23.10
2018-08-17T02:37:57.500Z,23.10
2018-08-17T02:38:29.608Z,23.10
2018-08-17T02:39:01.596Z,23.10
2018-08-17T02:39:33.436Z,23.10
2018-08-17T02:40:05.291Z,23.10
2018-08-17T02:40:37.211Z,23.10
2018-08-17T02:41:09.062Z,23.10
2018-08-17T02:41:40.899Z,23.10
2018-08-17T02:42:12.736Z,23.10
2018-08-17T02:42:44.564Z,23.10
2018-08-17T02:43:16.362Z,23.10
2018-08-17T02:43:48.294Z,23.10
2018-08-17T02:44:20.190Z,23.10
2018-08-17T02:44:52.101Z,23.10
2018-08-17T02:45:23.913Z,23.10
2018-08-17T02:45:55.723Z,23.10
2018-08-17T02:46:27.554Z,23.10
2018-08-17T02:46:59.384Z,23.10
2018-08-17T02:47:31.307Z,23.10
2018-08-17T02:48:03.120Z,23.10
2018-08-17T02:48:35.005Z,23.10
2018-08-17T02:49:06.775Z,23.10
2018-08-17T02:49:38.621Z,23.10
2018-08-17T02:50:10.675Z,23.10
2018-08-17T02:50:42.462Z,23.10
2018-08-17T02:51:14.240Z,23.10
2018-08-17T02:51:46.082Z,23.10
2018-08-17T02:52:18.066Z,23.20
2018-08-17T02:52:49.841Z,23.20
2018-08-17T02:53:21.832Z,23.20
2018-08-17T02:53:53.710Z,23.20
2018-08-17T02:54:25.582Z,23.20
2018-08-17T02:54:57.402Z,23.10
2018-08-17T02:55:29.183Z,23.10
2018-08-17T02:56:01.085Z,23.10
2018-08-17T02:56:33.274Z,23.10
2018-08-17T02:57:05.205Z,23.10
2018-08-17T02:57:37.042Z,23.10
2018-08-17T02:58:08.831Z,23.10
2018-08-17T02:58:40.636Z,23.10
2018-08-17T02:59:12.420Z,23.20
2018-08-17T02:59:44.318Z,23.10
2018-08-17T03:00:16.166Z,23.10
2018-08-17T03:00:47.988Z,23.10
2018-08-17T03:01:19.801Z,23.10
2018-08-17T03:01:51.784Z,23.10
2018-08-17T03:02:23.590Z,23.10
2018-08-17T03:02:55.426Z,23.10
2018-08-17T03:03:27.274Z,23.10
2018-08-17T03:03:59.233Z,23.10
2018-08-17T03:04:31.159Z,23.10
2018-08-17T03:05:03.109Z,23.10
2018-08-17T03:05:35.071Z,23.10
2018-08-17T03:06:07.089Z,23.20
2018-08-17T03:06:39.067Z,23.20
2018-08-17T03:07:10.942Z,23.20
2018-08-17T03:07:42.789Z,23.10
2018-08-17T03:08:14.699Z,23.10
2018-08-17T03:08:46.608Z,23.10
2018-08-17T03:09:18.719Z,23.10
2018-08-17T03:09:50.520Z,23.10
2018-08-17T03:10:22.430Z,23.10
2018-08-17T03:10:54.290Z,23.10
2018-08-17T03:11:26.079Z,23.20
2018-08-17T03:11:57.858Z,23.10
2018-08-17T03:12:29.658Z,23.10
2018-08-17T03:13:01.483Z,23.20
2018-08-17T03:13:33.473Z,23.10
2018-08-17T03:14:05.308Z,23.20
2018-08-17T03:14:37.141Z,23.20
2018-08-17T03:15:08.926Z,23.20
2018-08-17T03:15:40.850Z,23.20
2018-08-17T03:16:12.723Z,23.20
2018-08-17T03:16:44.586Z,23.20
2018-08-17T03:17:16.407Z,23.20
2018-08-17T03:17:48.246Z,23.20
2018-08-17T03:18:20.088Z,23.20
2018-08-17T03:18:51.946Z,23.20
2018-08-17T03:19:23.828Z,23.20
2018-08-17T03:19:55.714Z,23.20
2018-08-17T03:20:27.523Z,23.20
2018-08-17T03:20:59.360Z,23.20
2018-08-17T03:21:31.195Z,23.20
2018-08-17T03:22:03.124Z,23.20
2018-08-17T03:22:34.888Z,23.20
2018-08-17T03:23:06.684Z,23.20
2018-08-17T03:23:38.516Z,23.20
2018-08-17T03:24:10.441Z,23.20
2018-08-17T03:24:42.254Z,23.20
2018-08-17T03:25:14.054Z,23.20
2018-08-17T03:25:45.905Z,23.20
2018-08-17T03:26:18.055Z,23.20
2018-08-17T03:26:49.925Z,23.20
2018-08-17T03:27:21.895Z,23.20
2018-08-17T03:27:53.804Z,23.20
2018-08-17T03:28:25.583Z,23.20
2018-08-17T03:28:57.437Z,23.20
2018-08-17T03:29:29.338Z,23.20
2018-08-17T03:30:01.237Z,23.20
2018-08-17T03:30:33.205Z,23.20
2018-08-17T03:31:04.960Z,23.20
2018-08-17T03:31:36.898Z,23.20
2018-08-17T03:32:08.812Z,23.20
2018-08-17T03:32:40.853Z,23.20
2018-08-17T03:33:12.864Z,23.20
2018-08-17T03:33:44.776Z,23.20
2018-08-17T03:34:16.578Z,23.20
2018-08-17T03:34:48.588Z,23.20
2018-08-17T03:35:20.631Z,23.20
2018-08-17T03:35:52.472Z,23.20
2018-08-17T03:36:24.339Z,23.20
2018-08-17T03:36:56.246Z,23.20
2018-08-17T03:37:28.202Z,23.20
2018-08-17T03:38:00.048Z,23.20
2018-08-17T03:38:31.953Z,23.20
2018-08-17T03:39:03.784Z,23.20
2018-08-17T03:39:35.823Z,23.20
2018-08-17T03:40:07.662Z,23.20
2018-08-17T03:40:39.732Z,23.20
2018-08-17T03:41:11.580Z,23.20
2018-08-17T03:41:43.365Z,23.20
2018-08-17T03:42:15.243Z,23.20
2018-08-17T03:42:47.024Z,23.20
2018-08-17T03:43:18.897Z,23.20
2018-08-17T03:43:50.831Z,23.20
2018-08-17T03:44:22.658Z,23.20
2018-08-17T03:44:54.483Z,23.20
2018-08-17T03:45:26.332Z,23.20
2018-08-17T03:45:58.142Z,23.20
2018-08-17T03:46:30.091Z,23.20
2018-08-17T03:47:02.221Z,23.20
2018-08-17T03:47:34.133Z,23.20
2018-08-17T03:48:05.923Z,23.20
2018-08-17T03:48:37.732Z,23.20
2018-08-17T03:49:09.677Z,23.20
2018-08-17T03:49:41.523Z,23.20
2018-08-17T03:50:13.383Z,23.20
2018-08-17T03:50:45.183Z,23.10
2018-08-17T03:51:17.322Z,23.20
2018-08-17T03:51:49.121Z,23.20
2018-08-17T03:52:20.926Z,23.20
2018-08-17T03:52:52.823Z,23.10
2018-08-17T03:53:24.602Z,23.20
2018-08-17T03:53:56.411Z,23.20
2018-08-17T03:54:28.255Z,23.20
2018-08-17T03:55:00.049Z,23.20
2018-08-17T03:55:31.822Z,23.20
2018-08-17T03:56:03.700Z,23.20
2018-08-17T03:56:35.523Z,23.20
2018-08-17T03:57:07.320Z,23.20
2018-08-17T03:57:39.254Z,23.20
2018-08-17T03:58:11.188Z,23.20
2018-08-17T03:58:43.114Z,23.20
2018-08-17T03:59:14.958Z,23.20
2018-08-17T03:59:47.040Z,23.10
2018-08-17T04:00:18.891Z,23.20
2018-08-17T04:00:50.751Z,23.20
2018-08-17T04:01:22.519Z,23.20
2018-08-17T04:01:54.371Z,23.10
2018-08-17T04:02:26.161Z,23.20
2018-08-17T04:02:57.992Z,23.20
2018-08-17T04:03:30.042Z,23.20
2018-08-17T04:04:02.462Z,23.20
2018-08-17T04:04:34.365Z,23.20
2018-08-17T04:05:06.240Z,23.10
2018-08-17T04:05:38.125Z,23.10
2018-08-17T04:06:10.330Z,23.10
2018-08-17T04:06:42.220Z,23.10
2018-08-17T04:07:14.103Z,23.20
2018-08-17T04:07:45.953Z,23.10
2018-08-17T04:08:17.872Z,23.10
2018-08-17T04:08:49.893Z,23.10
2018-08-17T04:09:21.920Z,23.10
2018-08-17T04:09:53.802Z,23.20
2018-08-17T04:10:25.603Z,23.20
2018-08-17T04:10:57.584Z,23.20
2018-08-17T04:11:29.469Z,23.10
2018-08-17T04:12:01.400Z,23.10
2018-08-17T04:12:33.279Z,23.10
2018-08-17T04:13:05.058Z,23.10
2018-08-17T04:13:36.975Z,23.10
2018-08-17T04:14:08.773Z,23.10
2018-08-17T04:14:40.552Z,23.10
2018-08-17T04:15:12.615Z,23.10
2018-08-17T04:15:44.549Z,23.10
2018-08-17T04:16:16.454Z,23.10
2018-08-17T04:16:48.395Z,23.10
2018-08-17T04:17:20.410Z,23.10
2018-08-17T04:17:52.280Z,23.20
2018-08-17T04:18:24.084Z,23.10
2018-08-17T04:18:56.190Z,23.20
2018-08-17T04:19:28.056Z,23.10
2018-08-17T04:19:59.866Z,23.20
2018-08-17T04:20:31.730Z,23.20
2018-08-17T04:21:03.581Z,23.20
2018-08-17T04:21:35.422Z,23.10
2018-08-17T04:22:07.223Z,23.10
2018-08-17T04:22:39.058Z,23.10
2018-08-17T04:23:10.930Z,23.10
2018-08-17T04:23:42.799Z,23.10
2018-08-17T04:24:14.975Z,23.10
2018-08-17T04:24:46.752Z,23.10
2018-08-17T04:25:18.749Z,23.10
2018-08-17T04:25:50.536Z,23.10
2018-08-17T04:26:22.391Z,23.10
2018-08-17T04:26:54.200Z,23.00
2018-08-17T04:27:25.987Z,23.00
2018-08-17T04:27:58.000Z,23.00
2018-08-17T04:28:29.918Z,23.00
2018-08-17T04:29:01.755Z,23.00
2018-08-17T04:29:33.610Z,23.00
2018-08-17T04:30:05.387Z,23.00
2018-08-17T04:30:37.363Z,23.00
2018-08-17T04:31:09.212Z,23.00
2018-08-17T04:31:41.039Z,23.10
2018-08-17T04:32:12.959Z,23.00
2018-08-17T04:32:44.954Z,23.00
2018-08-17T04:33:16.779Z,23.00
2018-08-17T04:33:48.598Z,23.00
2018-08-17T04:34:20.488Z,23.00
2018-08-17T04:34:52.338Z,23.00
2018-08-17T04:35:24.269Z,23.10
2018-08-17T04:35:56.283Z,23.10
2018-08-17T04:36:28.270Z,23.10
2018-08-17T04:37:00.082Z,23.10
2018-08-17T04:37:32.230Z,23.10
2018-08-17T04:38:04.048Z,23.10
2018-08-17T04:38:35.866Z,23.10
2018-08-17T04:39:07.724Z,23.10
2018-08-17T04:39:39.768Z,23.10
2018-08-17T04:40:11.778Z,23.10
2018-08-17T04:40:43.668Z,23.10
2018-08-17T04:41:15.539Z,23.10
2018-08-17T04:41:47.667Z,23.10
2018-08-17T04:42:19.606Z,23.10
2018-08-17T04:42:51.491Z,23.10
2018-08-17T04:43:23.457Z,23.10
2018-08-17T04:43:55.305Z,23.10
2018-08-17T04:44:27.091Z,23.10
2018-08-17T04:44:58.892Z,23.10
2018-08-17T04:45:30.797Z,23.10
2018-08-17T04:46:02.597Z,23.10
2018-08-17T04:46:34.423Z,23.10
2018-08-17T04:47:06.247Z,23.10
2018-08-17T04:47:38.218Z,23.10
2018-08-17T04:48:10.213Z,23.10
2018-08-17T04:48:42.052Z,23.20
2018-08-17T04:49:13.953Z,23.20
2018-08-17T04:49:45.937Z,23.10
2018-08-17T04:50:17.844Z,23.20
2018-08-17T04:50:49.737Z,23.20
2018-08-17T04:51:21.537Z,23.20
2018-08-17T04:51:53.329Z,23.20
2018-08-17T04:52:25.396Z,23.20
2018-08-17T04:52:57.238Z,23.20
2018-08-17T04:53:29.016Z,23.20
2018-08-17T04:54:00.849Z,23.20
2018-08-17T04:54:32.640Z,23.20
2018-08-17T04:55:04.584Z,23.20
2018-08-17T04:55:36.529Z,23.20
2018-08-17T04:56:08.328Z,23.20
2018-08-17T04:56:40.281Z,23.20
2018-08-17T04:57:12.233Z,23.20
2018-08-17T04:57:44.213Z,23.20
2018-08-17T04:58:16.025Z,23.20
2018-08-17T04:58:47.830Z,23.20
2018-08-17T04:59:19.639Z,23.20
2018-08-17T04:59:51.485Z,23.20
2018-08-17T05:00:23.491Z,23.20
2018-08-17T05:00:55.327Z,23.20
2018-08-17T05:01:27.131Z,23.20
2018-08-17T05:01:59.040Z,23.20
2018-08-17T05:02:30.940Z,23.20
2018-08-17T05:03:02.822Z,23.20
2018-08-17T05:03:34.897Z,23.20
2018-08-17T05:04:06.770Z,23.20
2018-08-17T05:04:38.601Z,23.10
2018-08-17T05:05:10.461Z,23.20
2018-08-17T05:05:42.292Z,23.20
2018-08-17T05:06:14.232Z,23.20
2018-08-17T05:06:46.306Z,23.10
2018-08-17T05:07:18.166Z,23.20
2018-08-17T05:07:49.949Z,23.20
2018-08-17T05:08:21.810Z,23.20
2018-08-17T05:08:53.674Z,23.10
2018-08-17T05:09:25.679Z,23.10
2018-08-17T05:09:57.493Z,23.10
2018-08-17T05:10:29.477Z,23.10
2018-08-17T05:11:01.368Z,23.20
2018-08-17T05:11:33.207Z,23.20
2018-08-17T05:12:05.091Z,23.20
2018-08-17T05:12:37.001Z,23.20
2018-08-17T05:13:08.808Z,23.20
2018-08-17T05:13:40.883Z,23.20
2018-08-17T05:14:12.724Z,23.20
2018-08-17T05:14:44.579Z,23.20
2018-08-17T05:15:16.402Z,23.20
2018-08-17T05:15:48.401Z,23.20
2018-08-17T05:16:20.311Z,23.20
2018-08-17T05:16:52.233Z,23.20
2018-08-17T05:17:24.131Z,23.20
2018-08-17T05:17:56.081Z,23.20
2018-08-17T05:18:27.908Z,23.20
2018-08-17T05:18:59.717Z,23.20
2018-08-17T05:19:31.685Z,23.20
2018-08-17T05:20:03.551Z,23.20
2018-08-17T05:20:35.412Z,23.20
2018-08-17T05:21:07.253Z,23.20
2018-08-17T05:21:39.174Z,23.20
2018-08-17T05:22:11.102Z,23.20
2018-08-17T05:22:42.907Z,23.20
2018-08-17T05:23:14.780Z,23.20
2018-08-17T05:23:46.752Z,23.20
2018-08-17T05:24:18.583Z,23.20
2018-08-17T05:24:50.532Z,23.20
2018-08-17T05:25:22.639Z,23.20
2018-08-17T05:25:54.536Z,23.20
2018-08-17T05:26:26.340Z,23.20
2018-08-17T05:26:58.163Z,23.20
2018-08-17T05:27:30.233Z,23.20
2018-08-17T05:28:02.042Z,23.20
2018-08-17T05:28:34.003Z,23.20
2018-08-17T05:29:05.805Z,23.20
2018-08-17T05:29:37.633Z,23.20
2018-08-17T05:30:09.484Z,23.20
2018-08-17T05:30:41.428Z,23.20
2018-08-17T05:31:13.266Z,23.20
2018-08-17T05:31:45.076Z,23.20
2018-08-17T05:32:16.874Z,23.20
2018-08-17T05:32:48.824Z,23.10
2018-08-17T05:33:20.654Z,23.20
2018-08-17T05:33:52.464Z,23.10
2018-08-17T05:34:24.449Z,23.20
2018-08-17T05:34:56.282Z,23.20
2018-08-17T05:35:28.293Z,23.20
2018-08-17T05:36:00.278Z,23.10
2018-08-17T05:36:32.165Z,23.20
2018-08-17T05:37:03.932Z,23.20
2018-08-17T05:37:35.792Z,23.20
2018-08-17T05:38:07.881Z,23.20
2018-08-17T05:38:39.716Z,23.20
2018-08-17T05:39:11.657Z,23.20
2018-08-17T05:39:43.485Z,23.20
2018-08-17T05:40:15.292Z,23.20
2018-08-17T05:40:47.096Z,23.20
2018-08-17T05:41:18.880Z,23.20
2018-08-17T05:41:50.712Z,23.20
2018-08-17T05:42:22.556Z,23.20
2018-08-17T05:42:54.407Z,23.20
2018-08-17T05:43:26.203Z,23.20
2018-08-17T05:43:57.976Z,23.20
2018-08-17T05:44:29.822Z,23.20
2018-08-17T05:45:02.139Z,23.20
2018-08-17T05:45:34.324Z,23.20
2018-08-17T05:46:06.257Z,23.20
2018-08-17T05:46:38.153Z,23.20
2018-08-17T05:47:09.975Z,23.20
2018-08-17T05:47:41.813Z,23.20
2018-08-17T05:48:13.695Z,23.20
2018-08-17T05:48:45.667Z,23.20
2018-08-17T05:49:17.491Z,23.20
2018-08-17T05:49:49.452Z,23.20
2018-08-17T05:50:21.617Z,23.20
2018-08-17T05:50:53.534Z,23.20
2018-08-17T05:51:25.414Z,23.20
2018-08-17T05:51:57.254Z,23.20
2018-08-17T05:52:29.259Z,23.20
2018-08-17T05:53:01.163Z,23.20
2018-08-17T05:53:33.206Z,23.20
2018-08-17T05:54:05.095Z,23.20
2018-08-17T05:54:37.057Z,23.20
2018-08-17T05:55:09.304Z,23.30
2018-08-17T05:55:41.164Z,23.20
2018-08-17T05:56:12.995Z,23.20
2018-08-17T05:56:44.923Z,23.20
2018-08-17T05:57:17.031Z,23.20
2018-08-17T05:57:48.855Z,23.20
2018-08-17T05:58:20.723Z,23.20
2018-08-17T05:58:52.629Z,23.20
2018-08-17T05:59:24.635Z,23.20
2018-08-17T05:59:56.629Z,23.20
2018-08-17T06:00:28.750Z,23.20
2018-08-17T06:01:00.527Z,23.20
2018-08-17T06:01:32.395Z,23.20
2018-08-17T06:02:04.306Z,23.30
2018-08-17T06:02:36.217Z,23.20
2018-08-17T06:03:08.011Z,23.20
2018-08-17T06:03:39.800Z,23.30
2018-08-17T06:04:11.593Z,23.30
2018-08-17T06:04:43.366Z,23.30
2018-08-17T06:05:15.211Z,23.30
2018-08-17T06:05:47.105Z,23.30
2018-08-17T06:06:18.974Z,23.30
2018-08-17T06:06:50.777Z,23.30
2018-08-17T06:07:22.814Z,23.30
2018-08-17T06:07:54.647Z,23.30
2018-08-17T06:08:26.486Z,23.30
2018-08-17T06:08:58.303Z,23.30
2018-08-17T06:09:30.193Z,23.30
2018-08-17T06:10:02.084Z,23.30
2018-08-17T06:10:33.857Z,23.30
2018-08-17T06:11:05.822Z,23.30
2018-08-17T06:11:37.742Z,23.30
2018-08-17T06:12:09.539Z,23.30
2018-08-17T06:12:41.403Z,23.30
2018-08-17T06:13:13.478Z,23.30
2018-08-17T06:13:45.319Z,23.30
2018-08-17T06:14:17.220Z,23.30
2018-08-17T06:14:49.129Z,23.30
2018-08-17T06:15:20.984Z,23.30
2018-08-17T06:15:52.830Z,23.30
2018-08-17T06:16:24.651Z,23.30
2018-08-17T06:16:56.525Z,23.30
2018-08-17T06:17:28.300Z,23.30
2018-08-17T06:18:00.240Z,23.30
2018-08-17T06:18:32.040Z,23.30
2018-08-17T06:19:04.017Z,23.30
2018-08-17T06:19:35.819Z,23.30
2018-08-17T06:20:07.596Z,23.30
2018-08-17T06:20:39.448Z,23.30
2018-08-17T06:21:11.288Z,23.30
2018-08-17T06:21:43.121Z,23.30
2018-08-17T06:22:14.902Z,23.30
2018-08-17T06:22:46.712Z,23.30
2018-08-17T06:23:18.547Z,23.30
2018-08-17T06:23:50.603Z,23.30
2018-08-17T06:24:22.493Z,23.30
2018-08-17T06:24:54.314Z,23.40
2018-08-17T06:25:26.128Z,23.30
2018-08-17T06:25:58.004Z,23.40
2018-08-17T06:26:29.798Z,23.30
2018-08-17T06:27:01.620Z,23.40
2018-08-17T06:27:33.433Z,23.40
2018-08-17T06:28:05.263Z,23.40
2018-08-17T06:28:37.224Z,23.40
2018-08-17T06:29:09.144Z,23.40
2018-08-17T06:29:41.028Z,23.40
2018-08-17T06:30:12.884Z,23.40
2018-08-17T06:30:44.893Z,23.40
2018-08-17T06:31:16.678Z,23.40
2018-08-17T06:31:48.508Z,23.40
2018-08-17T06:32:20.515Z,23.40
2018-08-17T06:32:52.355Z,23.40
2018-08-17T06:33:24.183Z,23.40
2018-08-17T06:33:55.996Z,23.40
2018-08-17T06:34:27.794Z,23.40
2018-08-17T06:35:00.916Z,23.30
2018-08-17T06:35:32.744Z,23.30
2018-08-17T06:36:04.544Z,23.30
2018-08-17T06:36:36.617Z,23.30
2018-08-17T06:37:08.527Z,23.30
2018-08-17T06:37:40.668Z,23.30
2018-08-17T06:38:13.128Z,23.40
2018-08-17T06:38:45.297Z,23.30
2018-08-17T06:39:17.180Z,23.30
2018-08-17T06:39:49.020Z,23.40
2018-08-17T06:40:20.825Z,23.40
2018-08-17T06:40:52.657Z,23.40
2018-08-17T06:41:24.440Z,23.30
2018-08-17T06:41:56.273Z,23.40
2018-08-17T06:42:28.053Z,23.40
2018-08-17T06:42:59.878Z,23.40
2018-08-17T06:43:31.688Z,23.40
2018-08-17T06:44:03.460Z,23.40
2018-08-17T06:44:35.267Z,23.40
2018-08-17T06:45:07.050Z,23.40
2018-08-17T06:45:38.821Z,23.40
2018-08-17T06:46:10.662Z,23.40
2018-08-17T06:46:42.456Z,23.40
2018-08-17T06:47:14.337Z,23.40
2018-08-17T06:47:46.317Z,23.40
2018-08-17T06:48:18.202Z,23.40
2018-08-17T06:48:49.999Z,23.40
2018-08-17T06:49:21.838Z,23.40
2018-08-17T06:49:53.649Z,23.40
2018-08-17T06:50:25.595Z,23.40